createdAt,value
2023-04-01T00:21:23.367Z,8.10
2023-04-01T00:26:26.564Z,10.90
2023-04-01T00:31:28.991Z,11.40
2023-04-01T00:36:31.331Z,11.80
2023-04-01T00:41:33.645Z,12.00
2023-04-01T00:46:36.670Z,12.20
2023-04-01T00:51:42.085Z,12.40
2023-04-01T00:57:04.413Z,12.50
2023-04-01T01:02:11.563Z,12.50
2023-04-01T01:07:29.172Z,12.50
2023-04-01T01:39:35.032Z,11.30
2023-04-01T01:44:39.283Z,11.30
2023-04-01T01:49:44.475Z,11.20
2023-04-01T01:54:51.764Z,11.20
2023-04-01T01:59:59.847Z,11.20
2023-04-01T02:05:06.228Z,11.30
2023-04-01T02:10:09.926Z,11.30
2023-04-01T02:15:16.067Z,11.40
2023-04-01T02:20:23.173Z,11.50
2023-04-01T02:25:29.530Z,11.60
2023-04-01T02:30:34.811Z,11.70
2023-04-01T02:35:38.407Z,11.80
2023-04-01T02:40:51.465Z,11.90
2023-04-01T02:45:53.921Z,12.00
2023-04-01T02:50:56.173Z,12.00
2023-04-01T02:55:58.382Z,12.00
2023-04-01T03:01:00.681Z,12.00
2023-04-01T03:06:08.244Z,11.90
2023-04-01T03:11:11.409Z,11.90
2023-04-01T03:16:15.543Z,12.00
2023-04-01T03:21:20.940Z,12.00
2023-04-01T03:26:23.723Z,12.00
2023-04-01T03:31:26.333Z,12.10
2023-04-01T03:36:31.916Z,12.10
2023-04-01T03:41:36.621Z,12.10
2023-04-01T03:46:39.268Z,12.00
2023-04-01T03:51:43.868Z,11.90
2023-04-01T03:56:46.486Z,11.80
2023-04-01T04:01:49.082Z,11.60
2023-04-01T04:06:52.228Z,11.50
2023-04-01T04:11:57.197Z,11.40
2023-04-01T04:16:59.998Z,11.30
2023-04-01T04:22:02.501Z,11.20
2023-04-01T04:27:06.323Z,11.20
2023-04-01T04:32:09.395Z,11.30
2023-04-01T04:37:13.367Z,11.40
2023-04-01T04:42:15.816Z,11.50
2023-04-01T04:47:18.442Z,11.70
2023-04-01T04:52:21.154Z,11.80
2023-04-01T04:57:23.683Z,11.90
2023-04-01T05:02:31.070Z,12.10
2023-04-01T05:07:34.849Z,12.20
2023-04-01T05:12:38.544Z,12.40
2023-04-01T05:17:42.467Z,12.60
2023-04-01T05:22:46.054Z,12.60
2023-04-01T05:27:48.299Z,12.80
2023-04-01T05:32:50.907Z,12.90
2023-04-01T05:37:53.596Z,13.00
2023-04-01T05:42:57.184Z,13.00
2023-04-01T05:48:00.581Z,13.10
2023-04-01T05:53:05.870Z,13.20
2023-04-01T05:58:08.398Z,13.30
2023-04-01T06:03:12.599Z,13.50
2023-04-01T06:08:20.438Z,13.70
2023-04-01T06:45:32.546Z,14.00
2023-04-01T06:56:17.868Z,13.80
2023-04-01T07:01:36.838Z,13.50
2023-04-01T07:06:58.354Z,13.60
2023-04-01T07:12:07.633Z,14.00
2023-04-01T07:17:34.631Z,13.80
2023-04-01T07:22:44.539Z,13.90
2023-04-01T07:28:18.183Z,14.30
2023-04-01T07:49:42.219Z,13.90
2023-04-01T08:00:19.130Z,14.00
2023-04-01T08:05:57.488Z,13.80
2023-04-01T08:16:39.130Z,13.50
2023-04-01T08:21:48.461Z,13.90
2023-04-01T08:26:57.219Z,14.00
2023-04-01T08:32:09.029Z,14.00
2023-04-01T08:37:23.427Z,13.90
2023-04-01T08:53:17.463Z,13.80
2023-04-01T08:58:53.732Z,13.50
2023-04-01T09:10:02.725Z,13.60
2023-04-01T09:15:35.015Z,13.90
2023-04-01T09:21:06.058Z,14.20
2023-04-01T09:31:51.603Z,14.50
2023-04-01T09:37:36.299Z,14.40
2023-04-01T09:53:42.496Z,13.90
2023-04-01T10:52:00.404Z,12.90
2023-04-01T11:35:32.770Z,13.70
2023-04-01T11:41:02.160Z,14.00
2023-04-01T12:18:30.394Z,14.30
2023-04-01T20:49:34.936Z,9.70
2023-04-01T21:37:20.102Z,12.70
2023-04-01T21:53:41.865Z,12.60
2023-04-01T21:59:18.889Z,12.50
2023-04-01T22:20:41.251Z,12.50
2023-04-01T22:31:18.401Z,12.50
2023-04-01T22:36:55.023Z,12.50
2023-04-01T22:52:51.236Z,12.40
2023-04-01T22:57:59.926Z,12.20
2023-04-01T23:08:56.876Z,12.00
2023-04-01T23:41:07.483Z,11.30
2023-04-01T23:46:10.150Z,11.20
2023-04-01T23:51:37.339Z,11.30
2023-04-01T23:56:43.521Z,11.10
